createdAt,value
2018-09-11T00:01:03.981Z,7.07
2018-09-11T00:03:32.955Z,7.40
2018-09-11T00:06:00.680Z,6.73
2018-09-11T00:08:28.229Z,6.83
2018-09-11T00:10:55.737Z,7.10
2018-09-11T00:13:23.329Z,7.60
2018-09-11T00:15:50.907Z,7.47
2018-09-11T00:18:18.584Z,7.93
2018-09-11T00:20:46.422Z,7.23
2018-09-11T00:23:13.990Z,7.50
2018-09-11T00:25:41.489Z,8.60
2018-09-11T00:28:09.102Z,8.60
2018-09-11T00:30:36.715Z,8.13
2018-09-11T00:33:04.310Z,7.70
2018-09-11T00:35:32.015Z,8.60
2018-09-11T00:37:59.681Z,8.73
2018-09-11T00:40:27.215Z,8.70
2018-09-11T00:42:54.729Z,9.40
2018-09-11T00:45:22.231Z,8.97
2018-09-11T00:47:49.735Z,8.80
2018-09-11T00:50:17.223Z,8.73
2018-09-11T00:52:44.701Z,9.20
2018-09-11T00:55:12.200Z,9.20
2018-09-11T00:57:39.694Z,9.20
2018-09-11T01:00:07.597Z,9.50
2018-09-11T01:02:35.072Z,9.50
2018-09-11T01:05:02.588Z,9.03
2018-09-11T01:07:32.837Z,10.97
2018-09-11T01:10:00.333Z,8.87
2018-09-11T01:12:27.778Z,10.63
2018-09-11T01:14:55.443Z,9.30
2018-09-11T01:17:22.936Z,9.30
2018-09-11T01:19:50.400Z,8.20
2018-09-11T01:22:17.900Z,10.10
2018-09-11T01:24:45.369Z,9.90
2018-09-11T01:27:13.314Z,9.03
2018-09-11T01:29:40.844Z,9.63
2018-09-11T01:32:08.401Z,8.83
2018-09-11T01:34:35.867Z,8.70
2018-09-11T01:37:03.373Z,8.57
2018-09-11T01:39:30.874Z,9.50
2018-09-11T01:41:58.565Z,7.53
2018-09-11T01:44:26.090Z,7.90
2018-09-11T01:46:53.599Z,8.77
2018-09-11T01:49:21.224Z,7.27
2018-09-11T01:51:48.714Z,7.40
2018-09-11T01:54:16.163Z,7.13
2018-09-11T01:56:43.663Z,7.10
2018-09-11T01:59:11.296Z,6.67
2018-09-11T02:01:38.920Z,6.80
2018-09-11T02:04:06.787Z,6.33
2018-09-11T02:06:34.468Z,6.20
2018-09-11T02:09:02.100Z,5.40
2018-09-11T02:11:29.794Z,5.87
2018-09-11T02:13:57.268Z,5.97
2018-09-11T02:16:24.848Z,5.30
2018-09-11T02:18:52.507Z,6.03
2018-09-11T02:21:20.254Z,5.60
2018-09-11T02:23:47.903Z,5.77
2018-09-11T02:26:15.544Z,5.10
2018-09-11T02:28:43.122Z,4.70
2018-09-11T02:31:10.727Z,5.50
2018-09-11T02:33:38.539Z,6.10
2018-09-11T02:36:06.227Z,4.87
2018-09-11T02:38:33.787Z,4.93
2018-09-11T02:41:01.352Z,4.60
2018-09-11T02:43:28.955Z,4.17
2018-09-11T02:45:56.738Z,4.60
2018-09-11T02:48:24.282Z,5.27
2018-09-11T02:50:51.941Z,4.03
2018-09-11T02:53:19.681Z,5.10
2018-09-11T02:55:47.342Z,5.17
2018-09-11T02:58:14.989Z,5.00
2018-09-11T03:00:42.708Z,4.70
2018-09-11T03:03:10.268Z,4.40
2018-09-11T03:05:38.700Z,4.33
2018-09-11T03:08:06.351Z,4.57
2018-09-11T03:10:34.141Z,4.27
2018-09-11T03:13:01.939Z,4.60
2018-09-11T03:15:30.194Z,4.90
2018-09-11T03:17:57.915Z,4.87
2018-09-11T03:20:25.630Z,5.30
2018-09-11T03:22:53.310Z,6.50
2018-09-11T03:25:20.990Z,4.80
2018-09-11T03:27:48.593Z,4.07
2018-09-11T03:30:16.099Z,4.33
2018-09-11T03:32:43.723Z,5.10
2018-09-11T03:35:11.447Z,5.00
2018-09-11T03:37:39.245Z,4.97
2018-09-11T03:40:06.828Z,5.70
2018-09-11T03:42:34.372Z,4.00
2018-09-11T03:45:02.452Z,4.23
2018-09-11T03:47:30.387Z,5.00
2018-09-11T03:49:58.130Z,4.50
2018-09-11T03:52:26.020Z,5.43
2018-09-11T03:54:53.752Z,5.30
2018-09-11T03:57:21.367Z,4.80
2018-09-11T03:59:49.204Z,4.33
2018-09-11T04:02:16.875Z,4.97
2018-09-11T04:04:44.382Z,5.60
2018-09-11T04:07:12.143Z,5.17
2018-09-11T04:09:39.884Z,4.50
2018-09-11T04:12:07.626Z,5.57
2018-09-11T04:14:35.408Z,5.00
2018-09-11T04:17:03.155Z,5.00
2018-09-11T04:19:30.731Z,5.60
2018-09-11T04:21:58.407Z,5.60
2018-09-11T04:24:26.434Z,5.30
2018-09-11T04:26:53.948Z,6.30
2018-09-11T04:29:21.663Z,6.70
2018-09-11T04:31:49.419Z,6.80
2018-09-11T04:34:17.083Z,6.33
2018-09-11T04:36:44.649Z,6.20
2018-09-11T04:39:12.788Z,6.50
2018-09-11T04:41:40.392Z,7.47
2018-09-11T04:44:07.992Z,8.00
2018-09-11T04:46:35.697Z,7.30
2018-09-11T04:49:03.466Z,7.50
2018-09-11T04:51:31.043Z,7.83
2018-09-11T04:53:58.698Z,7.20
2018-09-11T04:56:26.207Z,8.07
2018-09-11T04:58:53.889Z,7.67
2018-09-11T05:01:21.448Z,8.47
2018-09-11T05:03:49.188Z,8.23
2018-09-11T05:06:16.731Z,7.53
2018-09-11T05:08:44.353Z,7.27
2018-09-11T05:11:12.152Z,7.97
2018-09-11T05:13:39.808Z,9.20
2018-09-11T05:16:07.529Z,8.33
2018-09-11T05:18:35.210Z,7.80
2018-09-11T05:21:02.845Z,8.70
2018-09-11T05:23:30.986Z,7.60
2018-09-11T05:25:58.637Z,9.40
2018-09-11T05:28:26.100Z,8.10
2018-09-11T05:30:53.703Z,8.80
2018-09-11T05:33:21.269Z,8.20
2018-09-11T05:35:52.576Z,8.90
2018-09-11T05:38:20.083Z,8.93
2018-09-11T05:40:47.771Z,9.27
2018-09-11T05:43:15.285Z,9.73
2018-09-11T05:45:43.040Z,8.83
2018-09-11T05:48:11.180Z,9.10
2018-09-11T05:50:38.760Z,9.73
2018-09-11T05:53:06.333Z,9.50
2018-09-11T05:55:33.877Z,9.57
2018-09-11T05:58:01.396Z,10.23
2018-09-11T06:00:29.076Z,8.83
2018-09-11T06:02:56.705Z,9.93
2018-09-11T06:05:24.547Z,10.67
2018-09-11T06:07:52.088Z,11.40
2018-09-11T06:10:19.659Z,10.47
2018-09-11T06:12:47.391Z,9.20
2018-09-11T06:15:15.003Z,10.60
2018-09-11T06:17:43.160Z,12.13
2018-09-11T06:20:12.663Z,11.07
2018-09-11T06:22:52.684Z,9.40
2018-09-11T06:25:20.454Z,11.00
2018-09-11T06:27:50.977Z,10.60
2018-09-11T06:30:18.772Z,11.30
2018-09-11T06:32:47.121Z,10.90
2018-09-11T06:35:14.701Z,11.27
2018-09-11T06:37:42.353Z,11.17
2018-09-11T06:40:10.184Z,10.37
2018-09-11T06:42:37.884Z,11.60
2018-09-11T06:45:06.649Z,11.60
2018-09-11T06:47:34.425Z,10.27
2018-09-11T06:50:02.212Z,10.90
2018-09-11T06:52:30.046Z,10.17
2018-09-11T06:54:58.163Z,10.73
2018-09-11T06:57:25.961Z,10.87
2018-09-11T06:59:53.553Z,14.33
2018-09-11T07:02:21.033Z,12.17
2018-09-11T07:04:48.524Z,10.13
2018-09-11T07:07:16.035Z,10.63
2018-09-11T07:09:43.708Z,10.30
2018-09-11T07:12:11.384Z,12.17
2018-09-11T07:14:38.928Z,10.00
2018-09-11T07:17:06.479Z,10.20
2018-09-11T07:19:34.118Z,9.30
2018-09-11T07:22:01.666Z,9.97
2018-09-11T07:24:29.295Z,10.30
2018-09-11T07:26:56.940Z,9.37
2018-09-11T07:29:24.579Z,10.80
2018-09-11T07:31:52.236Z,10.07
2018-09-11T07:34:19.721Z,9.73
2018-09-11T07:36:47.953Z,9.80
2018-09-11T07:39:16.077Z,10.47
2018-09-11T07:41:44.006Z,10.50
2018-09-11T07:44:11.605Z,9.47
2018-09-11T07:46:39.138Z,9.87
2018-09-11T07:49:06.923Z,10.13
2018-09-11T07:51:34.572Z,9.30
2018-09-11T07:54:02.260Z,9.77
2018-09-11T07:56:29.855Z,9.37
2018-09-11T07:58:57.503Z,9.77
2018-09-11T08:01:25.067Z,10.50
2018-09-11T08:03:52.842Z,9.80
2018-09-11T08:06:20.530Z,10.07
2018-09-11T08:08:49.374Z,10.63
2018-09-11T08:11:17.388Z,9.77
2018-09-11T08:13:45.137Z,10.00
2018-09-11T08:16:12.653Z,9.20
2018-09-11T08:18:40.185Z,11.37
2018-09-11T08:21:07.888Z,10.90
2018-09-11T08:23:35.401Z,10.67
2018-09-11T08:26:03.787Z,8.13
2018-09-11T08:28:31.628Z,9.50
2018-09-11T08:31:00.100Z,9.43
2018-09-11T08:33:28.207Z,9.80
2018-09-11T08:35:56.141Z,10.20
2018-09-11T08:38:23.761Z,9.40
2018-09-11T08:40:51.260Z,9.10
2018-09-11T08:43:18.801Z,9.63
2018-09-11T08:45:46.475Z,9.63
2018-09-11T08:48:14.005Z,8.90
2018-09-11T08:50:41.495Z,10.70
2018-09-11T08:53:09.052Z,9.67
2018-09-11T08:55:36.648Z,9.90
2018-09-11T08:58:04.442Z,8.90
2018-09-11T09:00:31.988Z,9.80
2018-09-11T09:02:59.988Z,7.57
2018-09-11T09:05:27.716Z,8.43
2018-09-11T09:07:55.214Z,8.93
2018-09-11T09:10:22.815Z,8.43
2018-09-11T09:12:50.315Z,10.47
2018-09-11T09:15:17.831Z,7.43
2018-09-11T09:17:45.421Z,7.40
2018-09-11T09:20:13.020Z,7.33
2018-09-11T09:22:40.527Z,7.80
2018-09-11T09:25:08.044Z,7.80
2018-09-11T09:27:35.637Z,7.77
2018-09-11T09:30:03.122Z,7.47
2018-09-11T09:32:30.613Z,7.57
2018-09-11T09:34:58.084Z,7.50
2018-09-11T09:37:25.598Z,8.00
2018-09-11T09:39:53.064Z,6.77
2018-09-11T09:42:20.565Z,8.53
2018-09-11T09:44:48.037Z,7.03
2018-09-11T09:47:15.649Z,7.33
2018-09-11T09:49:43.159Z,7.60
2018-09-11T09:52:10.649Z,7.70
2018-09-11T09:54:38.105Z,6.80
2018-09-11T09:57:05.629Z,7.90
2018-09-11T09:59:33.175Z,6.80
2018-09-11T10:02:04.058Z,6.20
2018-09-11T10:04:32.221Z,7.50
2018-09-11T10:06:59.890Z,9.00
2018-09-11T10:09:27.402Z,6.83
2018-09-11T10:11:54.912Z,7.20
2018-09-11T10:14:22.447Z,7.10
2018-09-11T10:16:50.193Z,8.23
2018-09-11T10:19:17.664Z,6.73
2018-09-11T10:21:45.188Z,6.43
2018-09-11T10:24:12.684Z,7.60
2018-09-11T10:26:40.296Z,8.20
2018-09-11T10:29:07.784Z,7.60
2018-09-11T10:31:35.285Z,8.03
2018-09-11T10:34:02.933Z,8.53
2018-09-11T10:36:30.603Z,7.70
2018-09-11T10:38:58.599Z,7.63
2018-09-11T10:41:26.383Z,8.00
2018-09-11T10:43:54.059Z,8.00
2018-09-11T10:46:21.651Z,7.37
2018-09-11T10:48:49.587Z,7.63
2018-09-11T10:51:17.155Z,8.17
2018-09-11T10:53:44.824Z,8.57
2018-09-11T10:56:13.103Z,8.23
2018-09-11T10:58:40.668Z,6.73
2018-09-11T11:01:08.367Z,6.90
2018-09-11T11:03:35.868Z,7.40
2018-09-11T11:06:03.383Z,6.67
2018-09-11T11:08:30.972Z,7.77
2018-09-11T11:10:58.620Z,7.43
2018-09-11T11:13:26.412Z,7.60
2018-09-11T11:15:54.273Z,7.00
2018-09-11T11:18:22.277Z,8.00
2018-09-11T11:20:50.232Z,6.37
2018-09-11T11:23:17.673Z,7.07
2018-09-11T11:25:45.239Z,6.00
2018-09-11T11:28:12.803Z,6.57
2018-09-11T11:30:40.255Z,5.90
2018-09-11T11:33:08.055Z,5.47
2018-09-11T11:35:35.633Z,6.37
2018-09-11T11:38:03.430Z,6.10
2018-09-11T11:40:30.951Z,6.20
2018-09-11T11:42:58.559Z,6.50
2018-09-11T11:45:26.136Z,7.10
2018-09-11T11:47:53.600Z,6.07
2018-09-11T11:50:21.872Z,5.30
2018-09-11T11:52:49.459Z,6.13
2018-09-11T11:55:16.962Z,6.80
2018-09-11T11:57:44.610Z,7.50
2018-09-11T12:00:12.894Z,7.80
2018-09-11T12:02:40.484Z,7.77
2018-09-11T12:05:08.132Z,6.50
2018-09-11T12:07:35.628Z,7.20
2018-09-11T12:10:03.207Z,6.50
2018-09-11T12:12:30.704Z,8.57
2018-09-11T12:14:58.531Z,7.17
2018-09-11T12:17:26.050Z,7.00
2018-09-11T12:19:53.850Z,7.40
2018-09-11T12:22:21.319Z,7.07
2018-09-11T12:24:48.906Z,7.23
2018-09-11T12:27:16.819Z,7.20
2018-09-11T12:29:44.403Z,9.20
2018-09-11T12:32:12.334Z,7.97
2018-09-11T12:34:39.825Z,9.30
2018-09-11T12:37:07.327Z,8.70
2018-09-11T12:39:34.961Z,8.30
2018-09-11T12:42:02.496Z,8.63
2018-09-11T12:44:30.030Z,8.67
2018-09-11T12:46:57.664Z,7.97
2018-09-11T12:49:25.032Z,8.40
2018-09-11T12:51:52.543Z,9.53
2018-09-11T12:54:20.069Z,9.20
2018-09-11T12:56:47.539Z,8.50
2018-09-11T12:59:15.052Z,9.63
2018-09-11T13:01:42.921Z,9.83
2018-09-11T13:04:10.419Z,9.60
2018-09-11T13:06:38.026Z,8.13
2018-09-11T13:09:06.816Z,8.10
2018-09-11T13:11:34.309Z,9.27
2018-09-11T13:14:01.879Z,8.17
2018-09-11T13:16:29.524Z,8.80
2018-09-11T13:18:57.171Z,8.87
2018-09-11T13:21:24.827Z,8.40
2018-09-11T13:23:52.661Z,8.80
2018-09-11T13:26:20.270Z,8.20
2018-09-11T13:28:47.810Z,8.60
2018-09-11T13:31:15.406Z,8.30
2018-09-11T13:33:43.120Z,7.80
2018-09-11T13:36:11.054Z,8.37
2018-09-11T13:38:39.431Z,8.53
2018-09-11T13:41:07.192Z,7.73
2018-09-11T13:43:34.915Z,7.20
2018-09-11T13:46:02.442Z,7.70
2018-09-11T13:48:30.126Z,9.30
2018-09-11T13:50:57.613Z,7.97
2018-09-11T13:53:25.172Z,7.40
2018-09-11T13:55:52.730Z,8.20
2018-09-11T13:58:20.307Z,7.87
2018-09-11T14:00:47.868Z,8.00
2018-09-11T14:03:15.460Z,6.90
2018-09-11T14:05:43.432Z,7.00
2018-09-11T14:08:10.952Z,6.83
2018-09-11T14:10:38.427Z,8.30
2018-09-11T14:13:06.122Z,7.50
2018-09-11T14:15:33.727Z,8.80
2018-09-11T14:18:01.490Z,7.73
2018-09-11T14:20:29.036Z,7.43
2018-09-11T14:22:56.544Z,7.67
2018-09-11T14:25:24.156Z,8.50
2018-09-11T14:27:51.638Z,8.20
2018-09-11T14:30:19.147Z,8.13
2018-09-11T14:32:46.789Z,8.83
2018-09-11T14:35:14.330Z,7.20
2018-09-11T14:37:42.725Z,7.07
2018-09-11T14:40:10.408Z,8.60
2018-09-11T14:42:37.968Z,9.03
2018-09-11T14:45:05.705Z,9.00
2018-09-11T14:47:38.870Z,8.90
2018-09-11T14:50:06.751Z,8.83
2018-09-11T14:52:34.264Z,8.23
2018-09-11T14:55:01.760Z,7.70
2018-09-11T14:57:29.603Z,7.80
2018-09-11T14:59:57.052Z,7.83
2018-09-11T15:02:24.610Z,8.47
2018-09-11T15:04:52.559Z,8.73
2018-09-11T15:07:20.112Z,7.60
2018-09-11T15:09:47.655Z,8.07
2018-09-11T15:12:16.302Z,8.00
2018-09-11T15:14:43.847Z,7.60
2018-09-11T15:17:11.346Z,7.53
2018-09-11T15:19:39.458Z,7.67
2018-09-11T15:22:07.042Z,8.10
2018-09-11T15:24:34.782Z,7.90
2018-09-11T15:27:02.580Z,8.07
2018-09-11T15:29:30.105Z,7.80
2018-09-11T15:31:57.715Z,7.17
2018-09-11T15:34:25.288Z,7.37
2018-09-11T15:36:52.845Z,7.40
2018-09-11T15:39:20.695Z,7.90
2018-09-11T15:41:48.199Z,8.10
2018-09-11T15:44:15.698Z,8.60
2018-09-11T15:46:43.216Z,7.90
2018-09-11T15:49:10.827Z,8.00
2018-09-11T15:51:40.079Z,7.63
2018-09-11T15:54:10.181Z,8.13
2018-09-11T15:56:37.991Z,8.57
2018-09-11T15:59:06.027Z,8.07
2018-09-11T16:01:34.430Z,8.60
2018-09-11T16:04:02.194Z,7.73
2018-09-11T16:06:30.788Z,7.80
2018-09-11T16:09:00.554Z,8.67
2018-09-11T16:11:28.108Z,8.23
2018-09-11T16:13:56.795Z,8.07
2018-09-11T16:16:24.637Z,8.17
2018-09-11T16:18:52.219Z,8.07
2018-09-11T16:21:19.875Z,7.77
2018-09-11T16:23:47.860Z,8.07
2018-09-11T16:26:15.753Z,7.60
2018-09-11T16:28:43.484Z,7.80
2018-09-11T16:31:12.971Z,7.80
2018-09-11T16:33:41.643Z,9.20
2018-09-11T16:36:09.437Z,10.27
2018-09-11T16:38:37.542Z,11.80
2018-09-11T16:41:06.422Z,18.77
2018-09-11T16:43:34.309Z,18.80
2018-09-11T16:46:07.002Z,18.50
2018-09-11T16:48:38.070Z,29.33
2018-09-11T16:51:05.714Z,30.40
2018-09-11T16:53:34.938Z,32.17
2018-09-11T16:56:02.618Z,32.30
2018-09-11T16:58:30.393Z,29.17
2018-09-11T17:00:57.953Z,33.57
2018-09-11T17:03:25.443Z,28.60
2018-09-11T17:05:53.013Z,26.20
2018-09-11T17:08:20.696Z,24.37
2018-09-11T17:10:48.196Z,21.83
2018-09-11T17:13:15.693Z,22.50
2018-09-11T17:15:44.016Z,22.03
2018-09-11T17:18:11.886Z,21.20
2018-09-11T17:20:39.584Z,20.47
2018-09-11T17:23:07.217Z,21.00
2018-09-11T17:25:34.752Z,20.43
2018-09-11T17:28:02.268Z,20.57
2018-09-11T17:30:29.808Z,21.50
2018-09-11T17:32:57.471Z,21.67
2018-09-11T17:35:25.412Z,21.73
2018-09-11T17:37:53.232Z,24.93
2018-09-11T17:40:20.881Z,24.40
2018-09-11T17:42:49.116Z,26.83
2018-09-11T17:45:16.561Z,30.87
2018-09-11T17:47:44.801Z,31.63
2018-09-11T17:50:12.304Z,32.10
2018-09-11T17:52:39.927Z,33.73
2018-09-11T17:55:07.741Z,35.43
2018-09-11T17:57:35.394Z,39.90
2018-09-11T18:00:03.327Z,35.60
2018-09-11T18:02:33.368Z,34.57
2018-09-11T18:05:01.978Z,35.00
2018-09-11T18:07:29.667Z,33.70
2018-09-11T18:09:57.173Z,31.97
2018-09-11T18:12:24.736Z,31.83
2018-09-11T18:14:52.303Z,31.70
2018-09-11T18:17:19.771Z,30.03
2018-09-11T18:19:47.256Z,28.63
2018-09-11T18:22:15.232Z,28.60
2018-09-11T18:24:42.732Z,26.63
2018-09-11T18:27:10.250Z,26.53
2018-09-11T18:29:37.744Z,23.67
2018-09-11T18:32:05.235Z,22.87
2018-09-11T18:34:32.777Z,21.30
2018-09-11T18:37:00.722Z,18.47
2018-09-11T18:39:29.641Z,17.90
2018-09-11T18:41:57.145Z,16.67
2018-09-11T18:44:24.688Z,16.10
2018-09-11T18:46:52.101Z,15.20
2018-09-11T18:49:19.688Z,15.03
2018-09-11T18:51:47.245Z,14.80
2018-09-11T18:54:14.707Z,13.83
2018-09-11T18:56:43.413Z,13.37
2018-09-11T18:59:10.922Z,12.10
2018-09-11T19:01:38.501Z,12.07
2018-09-11T19:04:06.105Z,12.90
2018-09-11T19:06:34.162Z,12.27
2018-09-11T19:09:01.969Z,11.77
2018-09-11T19:11:29.868Z,12.50
2018-09-11T19:13:57.515Z,11.93
2018-09-11T19:16:25.342Z,12.20
2018-09-11T19:18:53.267Z,10.00
2018-09-11T19:21:21.626Z,10.47
2018-09-11T19:23:49.598Z,10.90
2018-09-11T19:29:01.403Z,11.03
2018-09-11T19:31:29.861Z,13.13
2018-09-11T19:33:57.518Z,12.53
2018-09-11T19:36:25.078Z,11.97
2018-09-11T19:38:53.282Z,12.43
2018-09-11T19:41:20.854Z,11.03
2018-09-11T19:43:48.480Z,12.03
2018-09-11T19:46:16.049Z,12.97
2018-09-11T19:48:43.989Z,11.33
2018-09-11T19:51:11.536Z,10.67
2018-09-11T19:53:39.075Z,12.90
2018-09-11T19:56:07.713Z,14.77
2018-09-11T19:58:35.242Z,16.90
2018-09-11T20:01:02.711Z,15.93
2018-09-11T20:03:30.315Z,14.83
2018-09-11T20:05:57.938Z,16.03
2018-09-11T20:08:25.473Z,15.27
2018-09-11T20:10:52.955Z,16.37
2018-09-11T20:13:20.546Z,15.63
2018-09-11T20:15:48.135Z,14.70
2018-09-11T20:18:16.018Z,16.80
2018-09-11T20:20:43.634Z,16.40
2018-09-11T20:23:11.347Z,17.03
2018-09-11T20:25:38.972Z,17.70
2018-09-11T20:28:07.005Z,18.07
2018-09-11T20:30:36.598Z,18.97
2018-09-11T20:33:04.191Z,20.07
2018-09-11T20:35:31.629Z,20.70
2018-09-11T20:37:59.100Z,19.00
2018-09-11T20:40:26.638Z,20.13
2018-09-11T20:42:54.090Z,21.10
2018-09-11T20:45:21.600Z,20.07
2018-09-11T20:47:49.088Z,18.80
2018-09-11T20:50:16.575Z,18.90
2018-09-11T20:52:44.005Z,18.53
2018-09-11T20:55:11.527Z,18.20
2018-09-11T20:57:39.100Z,19.30
2018-09-11T21:00:06.711Z,17.73
2018-09-11T21:02:34.241Z,19.30
2018-09-11T21:05:01.962Z,17.70
2018-09-11T21:07:29.619Z,17.93
2018-09-11T21:09:57.397Z,16.50
2018-09-11T21:12:25.669Z,16.70
2018-09-11T21:14:53.152Z,15.90
2018-09-11T21:17:20.653Z,15.80
2018-09-11T21:19:48.139Z,14.80
2018-09-11T21:22:15.698Z,13.80
2018-09-11T21:24:43.229Z,13.97
2018-09-11T21:27:10.751Z,12.70
2018-09-11T21:29:38.252Z,12.77
2018-09-11T21:32:06.486Z,12.83
2018-09-11T21:34:34.061Z,12.20
2018-09-11T21:37:01.525Z,12.00
2018-09-11T21:39:29.059Z,11.33
2018-09-11T21:41:56.830Z,9.13
2018-09-11T21:44:25.014Z,9.37
2018-09-11T21:46:52.580Z,10.10
2018-09-11T21:49:20.207Z,8.50
2018-09-11T21:51:47.709Z,8.43
2018-09-11T21:54:15.248Z,10.47
2018-09-11T21:56:42.772Z,8.63
2018-09-11T21:59:10.614Z,8.57
2018-09-11T22:01:51.599Z,9.23
2018-09-11T22:04:19.848Z,8.50
2018-09-11T22:06:47.590Z,6.80
2018-09-11T22:09:15.034Z,6.63
2018-09-11T22:11:42.487Z,8.30
2018-09-11T22:14:10.298Z,6.37
2018-09-11T22:16:38.527Z,7.30
2018-09-11T22:19:06.239Z,7.17
2018-09-11T22:21:34.343Z,7.03
2018-09-11T22:24:02.088Z,7.13
2018-09-11T22:26:29.543Z,6.97
2018-09-11T22:28:57.022Z,6.60
2018-09-11T22:31:24.459Z,7.03
2018-09-11T22:33:51.943Z,7.80
2018-09-11T22:36:19.413Z,7.70
2018-09-11T22:38:47.160Z,7.27
2018-09-11T22:41:14.648Z,7.23
2018-09-11T22:43:42.110Z,7.40
2018-09-11T22:46:09.636Z,7.60
2018-09-11T22:48:37.112Z,6.80
2018-09-11T22:51:05.175Z,6.63
2018-09-11T22:53:32.714Z,7.13
2018-09-11T22:56:00.158Z,6.87
2018-09-11T22:58:27.663Z,7.43
2018-09-11T23:00:55.103Z,6.37
2018-09-11T23:03:22.567Z,7.27
2018-09-11T23:05:49.985Z,8.30
2018-09-11T23:08:17.523Z,6.50
2018-09-11T23:10:45.029Z,7.07
2018-09-11T23:13:12.451Z,6.47
2018-09-11T23:15:39.955Z,8.20
2018-09-11T23:18:07.463Z,7.30
2018-09-11T23:20:34.886Z,6.90
2018-09-11T23:23:02.400Z,8.20
2018-09-11T23:25:29.847Z,8.67
2018-09-11T23:27:57.469Z,6.57
2018-09-11T23:30:24.881Z,7.83
2018-09-11T23:32:52.280Z,7.17
2018-09-11T23:35:19.764Z,7.87
2018-09-11T23:37:47.247Z,8.07
2018-09-11T23:40:14.727Z,9.70
2018-09-11T23:42:42.184Z,8.30
2018-09-11T23:45:09.991Z,9.03
2018-09-11T23:47:37.440Z,8.23
2018-09-11T23:50:05.376Z,8.13
2018-09-11T23:52:32.819Z,8.90
2018-09-11T23:55:00.280Z,8.47
2018-09-11T23:57:27.733Z,8.60
2018-09-11T23:59:55.159Z,8.87
